Terminal Aerodrome Forecast
Issued by NWS

Home | Current Version | Previous Version | Text Only | Print | Product List | Glossary On
Versions: 1 2 3 4 5 6 7 8 9 10 11 12 13 14 15 16 17 18
000
FTUS43 KDVN 301100
TAFBRL
TAF
KBRL 301122Z 3012/3112 16004KT P6SM BKN090 OVC200
     FM302200 VRB05KT P6SM SCT060 BKN080
     FM310600 35015G25KT P6SM BKN040 OVC050=

USA.gov is the U.S. government's official web portal to all federal, state and local government web resources and services.